sensor_id;sensor_type;location;lat;lon;timestamp;P1;durP1;ratioP1;P2;durP2;ratioP2
71610;SDS011;59459;51.172;6.682;2023-11-19T00:01:43;4.50;;;1.30;;
71610;SDS011;59459;51.172;6.682;2023-11-19T00:04:08;2.47;;;1.00;;
71610;SDS011;59459;51.172;6.682;2023-11-19T00:06:33;2.77;;;1.17;;
71610;SDS011;59459;51.172;6.682;2023-11-19T00:08:58;3.20;;;0.93;;
71610;SDS011;59459;51.172;6.682;2023-11-19T00:11:25;4.47;;;1.20;;
71610;SDS011;59459;51.172;6.682;2023-11-19T00:13:50;3.67;;;1.07;;
71610;SDS011;59459;51.172;6.682;2023-11-19T00:16:15;4.87;;;1.27;;
71610;SDS011;59459;51.172;6.682;2023-11-19T00:18:41;2.83;;;0.93;;
71610;SDS011;59459;51.172;6.682;2023-11-19T00:21:06;4.23;;;1.33;;
71610;SDS011;59459;51.172;6.682;2023-11-19T00:23:33;2.80;;;1.00;;
71610;SDS011;59459;51.172;6.682;2023-11-19T00:25:58;2.83;;;1.10;;
71610;SDS011;59459;51.172;6.682;2023-11-19T00:28:23;8.70;;;1.23;;
71610;SDS011;59459;51.172;6.682;2023-11-19T00:30:49;5.78;;;1.15;;
71610;SDS011;59459;51.172;6.682;2023-11-19T00:33:14;3.83;;;1.23;;
71610;SDS011;59459;51.172;6.682;2023-11-19T00:35:39;3.43;;;0.90;;
71610;SDS011;59459;51.172;6.682;2023-11-19T00:38:04;3.93;;;1.20;;
71610;SDS011;59459;51.172;6.682;2023-11-19T00:40:29;2.60;;;1.10;;
71610;SDS011;59459;51.172;6.682;2023-11-19T00:42:55;3.47;;;1.27;;
71610;SDS011;59459;51.172;6.682;2023-11-19T00:45:21;4.13;;;1.23;;
71610;SDS011;59459;51.172;6.682;2023-11-19T00:47:46;2.40;;;0.77;;
71610;SDS011;59459;51.172;6.682;2023-11-19T00:50:12;2.10;;;0.90;;
71610;SDS011;59459;51.172;6.682;2023-11-19T00:52:38;3.42;;;1.00;;
71610;SDS011;59459;51.172;6.682;2023-11-19T00:55:03;2.93;;;0.80;;
71610;SDS011;59459;51.172;6.682;2023-11-19T00:57:29;1.38;;;0.70;;
71610;SDS011;59459;51.172;6.682;2023-11-19T00:59:55;1.87;;;0.70;;
71610;SDS011;59459;51.172;6.682;2023-11-19T01:02:20;1.63;;;0.60;;
71610;SDS011;59459;51.172;6.682;2023-11-19T01:04:45;2.60;;;0.70;;
71610;SDS011;59459;51.172;6.682;2023-11-19T01:07:10;1.47;;;0.60;;
71610;SDS011;59459;51.172;6.682;2023-11-19T01:09:37;1.45;;;0.50;;
71610;SDS011;59459;51.172;6.682;2023-11-19T01:12:03;2.47;;;0.80;;
71610;SDS011;59459;51.172;6.682;2023-11-19T01:14:28;1.77;;;0.50;;
71610;SDS011;59459;51.172;6.682;2023-11-19T01:16:54;2.67;;;0.90;;
71610;SDS011;59459;51.172;6.682;2023-11-19T01:19:19;1.60;;;0.70;;
71610;SDS011;59459;51.172;6.682;2023-11-19T01:21:45;2.70;;;0.60;;
71610;SDS011;59459;51.172;6.682;2023-11-19T01:24:10;3.20;;;0.70;;
71610;SDS011;59459;51.172;6.682;2023-11-19T01:26:38;2.28;;;0.73;;
71610;SDS011;59459;51.172;6.682;2023-11-19T01:29:03;3.60;;;0.70;;
71610;SDS011;59459;51.172;6.682;2023-11-19T01:31:29;1.73;;;0.70;;
71610;SDS011;59459;51.172;6.682;2023-11-19T01:33:54;2.93;;;0.80;;
71610;SDS011;59459;51.172;6.682;2023-11-19T01:36:20;1.70;;;0.70;;
71610;SDS011;59459;51.172;6.682;2023-11-19T01:38:45;2.42;;;0.60;;
71610;SDS011;59459;51.172;6.682;2023-11-19T01:41:11;2.07;;;0.87;;
71610;SDS011;59459;51.172;6.682;2023-11-19T01:43:37;4.27;;;0.80;;
71610;SDS011;59459;51.172;6.682;2023-11-19T01:46:02;1.70;;;0.70;;
71610;SDS011;59459;51.172;6.682;2023-11-19T01:48:31;1.90;;;0.77;;
71610;SDS011;59459;51.172;6.682;2023-11-19T01:50:57;2.40;;;0.70;;
71610;SDS011;59459;51.172;6.682;2023-11-19T01:53:24;3.70;;;1.05;;
71610;SDS011;59459;51.172;6.682;2023-11-19T01:55:50;4.40;;;0.90;;
71610;SDS011;59459;51.172;6.682;2023-11-19T01:58:15;2.20;;;1.10;;
71610;SDS011;59459;51.172;6.682;2023-11-19T02:00:41;2.90;;;0.90;;
71610;SDS011;59459;51.172;6.682;2023-11-19T02:03:07;4.77;;;1.10;;
71610;SDS011;59459;51.172;6.682;2023-11-19T02:05:33;4.95;;;1.20;;
71610;SDS011;59459;51.172;6.682;2023-11-19T02:07:58;6.73;;;1.50;;
71610;SDS011;59459;51.172;6.682;2023-11-19T02:10:24;6.13;;;1.23;;
71610;SDS011;59459;51.172;6.682;2023-11-19T02:12:50;5.93;;;1.90;;
71610;SDS011;59459;51.172;6.682;2023-11-19T02:15:16;6.75;;;1.65;;
71610;SDS011;59459;51.172;6.682;2023-11-19T02:17:43;3.90;;;1.67;;
71610;SDS011;59459;51.172;6.682;2023-11-19T02:20:09;9.53;;;1.90;;
71610;SDS011;59459;51.172;6.682;2023-11-19T02:22:36;9.50;;;2.07;;
71610;SDS011;59459;51.172;6.682;2023-11-19T02:25:04;7.67;;;2.00;;
71610;SDS011;59459;51.172;6.682;2023-11-19T02:27:44;5.80;;;1.80;;
71610;SDS011;59459;51.172;6.682;2023-11-19T02:30:10;6.38;;;1.55;;
71610;SDS011;59459;51.172;6.682;2023-11-19T02:32:36;8.10;;;1.85;;
71610;SDS011;59459;51.172;6.682;2023-11-19T02:35:05;7.00;;;1.80;;
71610;SDS011;59459;51.172;6.682;2023-11-19T02:37:32;7.50;;;2.20;;
71610;SDS011;59459;51.172;6.682;2023-11-19T02:39:58;6.87;;;1.80;;
71610;SDS011;59459;51.172;6.682;2023-11-19T02:42:34;7.35;;;1.92;;
71610;SDS011;59459;51.172;6.682;2023-11-19T02:44:59;9.03;;;2.00;;
71610;SDS011;59459;51.172;6.682;2023-11-19T02:47:24;7.63;;;2.03;;
71610;SDS011;59459;51.172;6.682;2023-11-19T02:49:49;7.40;;;1.90;;
71610;SDS011;59459;51.172;6.682;2023-11-19T02:52:15;9.97;;;1.70;;
71610;SDS011;59459;51.172;6.682;2023-11-19T02:54:40;6.87;;;1.80;;
71610;SDS011;59459;51.172;6.682;2023-11-19T02:57:06;8.20;;;2.00;;
71610;SDS011;59459;51.172;6.682;2023-11-19T02:59:33;9.90;;;2.63;;
71610;SDS011;59459;51.172;6.682;2023-11-19T03:02:04;9.50;;;2.17;;
71610;SDS011;59459;51.172;6.682;2023-11-19T03:04:31;8.00;;;2.45;;
71610;SDS011;59459;51.172;6.682;2023-11-19T03:06:56;10.03;;;1.97;;
71610;SDS011;59459;51.172;6.682;2023-11-19T03:09:23;8.82;;;1.88;;
71610;SDS011;59459;51.172;6.682;2023-11-19T03:11:49;6.03;;;1.50;;
71610;SDS011;59459;51.172;6.682;2023-11-19T03:14:14;7.30;;;1.70;;
71610;SDS011;59459;51.172;6.682;2023-11-19T03:16:39;9.13;;;1.97;;
71610;SDS011;59459;51.172;6.682;2023-11-19T03:19:05;10.30;;;2.10;;
71610;SDS011;59459;51.172;6.682;2023-11-19T03:21:30;10.30;;;1.60;;
71610;SDS011;59459;51.172;6.682;2023-11-19T03:23:56;9.98;;;1.63;;
71610;SDS011;59459;51.172;6.682;2023-11-19T03:26:21;8.80;;;2.20;;
71610;SDS011;59459;51.172;6.682;2023-11-19T03:28:47;10.13;;;1.93;;
71610;SDS011;59459;51.172;6.682;2023-11-19T03:31:12;7.13;;;1.60;;
71610;SDS011;59459;51.172;6.682;2023-11-19T03:33:37;11.43;;;1.93;;
71610;SDS011;59459;51.172;6.682;2023-11-19T03:36:02;12.30;;;1.70;;
71610;SDS011;59459;51.172;6.682;2023-11-19T03:38:28;7.55;;;1.88;;
71610;SDS011;59459;51.172;6.682;2023-11-19T03:40:53;7.73;;;1.50;;
71610;SDS011;59459;51.172;6.682;2023-11-19T03:43:18;7.83;;;2.10;;
71610;SDS011;59459;51.172;6.682;2023-11-19T03:45:46;8.40;;;1.50;;
71610;SDS011;59459;51.172;6.682;2023-11-19T03:48:11;10.17;;;1.70;;
71610;SDS011;59459;51.172;6.682;2023-11-19T03:50:37;9.07;;;2.00;;
71610;SDS011;59459;51.172;6.682;2023-11-19T03:53:02;9.17;;;1.37;;
71610;SDS011;59459;51.172;6.682;2023-11-19T03:55:27;10.07;;;2.05;;
71610;SDS011;59459;51.172;6.682;2023-11-19T03:57:53;11.40;;;1.48;;
71610;SDS011;59459;51.172;6.682;2023-11-19T04:00:19;7.47;;;1.60;;
71610;SDS011;59459;51.172;6.682;2023-11-19T04:02:46;7.75;;;1.80;;
71610;SDS011;59459;51.172;6.682;2023-11-19T04:05:12;13.77;;;2.17;;
71610;SDS011;59459;51.172;6.682;2023-11-19T04:07:37;9.20;;;1.80;;
71610;SDS011;59459;51.172;6.682;2023-11-19T04:10:02;6.90;;;1.37;;
71610;SDS011;59459;51.172;6.682;2023-11-19T04:12:27;7.47;;;2.03;;
71610;SDS011;59459;51.172;6.682;2023-11-19T04:14:53;11.10;;;1.87;;
71610;SDS011;59459;51.172;6.682;2023-11-19T04:17:18;8.27;;;2.10;;
71610;SDS011;59459;51.172;6.682;2023-11-19T04:19:43;10.60;;;1.63;;
71610;SDS011;59459;51.172;6.682;2023-11-19T04:22:08;13.20;;;1.50;;
71610;SDS011;59459;51.172;6.682;2023-11-19T04:24:34;12.00;;;2.30;;
71610;SDS011;59459;51.172;6.682;2023-11-19T04:26:59;9.90;;;1.87;;
71610;SDS011;59459;51.172;6.682;2023-11-19T04:29:24;13.90;;;3.40;;
71610;SDS011;59459;51.172;6.682;2023-11-19T04:31:50;15.10;;;1.92;;
71610;SDS011;59459;51.172;6.682;2023-11-19T04:34:15;6.43;;;1.50;;
71610;SDS011;59459;51.172;6.682;2023-11-19T04:36:41;11.27;;;1.70;;
71610;SDS011;59459;51.172;6.682;2023-11-19T04:39:06;8.80;;;1.53;;
71610;SDS011;59459;51.172;6.682;2023-11-19T04:41:34;7.40;;;2.15;;
71610;SDS011;59459;51.172;6.682;2023-11-19T04:44:00;8.80;;;1.77;;
71610;SDS011;59459;51.172;6.682;2023-11-19T04:46:25;13.67;;;2.17;;
71610;SDS011;59459;51.172;6.682;2023-11-19T04:48:50;14.40;;;2.13;;
71610;SDS011;59459;51.172;6.682;2023-11-19T04:51:16;12.83;;;1.90;;
71610;SDS011;59459;51.172;6.682;2023-11-19T04:53:41;14.70;;;2.20;;
71610;SDS011;59459;51.172;6.682;2023-11-19T04:56:07;12.20;;;1.80;;
71610;SDS011;59459;51.172;6.682;2023-11-19T04:58:32;7.88;;;1.40;;
71610;SDS011;59459;51.172;6.682;2023-11-19T05:00:58;10.48;;;2.05;;
71610;SDS011;59459;51.172;6.682;2023-11-19T05:03:24;7.57;;;1.67;;
71610;SDS011;59459;51.172;6.682;2023-11-19T05:05:49;13.67;;;1.80;;
71610;SDS011;59459;51.172;6.682;2023-11-19T05:08:14;17.30;;;2.50;;
71610;SDS011;59459;51.172;6.682;2023-11-19T05:10:39;12.60;;;1.77;;
71610;SDS011;59459;51.172;6.682;2023-11-19T05:13:05;13.53;;;1.60;;
71610;SDS011;59459;51.172;6.682;2023-11-19T05:15:30;13.30;;;2.13;;
71610;SDS011;59459;51.172;6.682;2023-11-19T05:17:55;8.33;;;2.30;;
71610;SDS011;59459;51.172;6.682;2023-11-19T05:20:20;8.03;;;2.07;;
71610;SDS011;59459;51.172;6.682;2023-11-19T05:22:46;6.23;;;2.60;;
71610;SDS011;59459;51.172;6.682;2023-11-19T05:25:11;12.07;;;1.80;;
71610;SDS011;59459;51.172;6.682;2023-11-19T05:27:37;6.87;;;1.43;;
71610;SDS011;59459;51.172;6.682;2023-11-19T05:30:03;9.27;;;2.28;;
71610;SDS011;59459;51.172;6.682;2023-11-19T05:32:28;11.65;;;2.28;;
71610;SDS011;59459;51.172;6.682;2023-11-19T05:34:54;12.53;;;2.13;;
71610;SDS011;59459;51.172;6.682;2023-11-19T05:37:19;8.23;;;1.87;;
71610;SDS011;59459;51.172;6.682;2023-11-19T05:39:44;15.77;;;2.73;;
71610;SDS011;59459;51.172;6.682;2023-11-19T05:42:10;9.47;;;1.60;;
71610;SDS011;59459;51.172;6.682;2023-11-19T05:44:35;9.70;;;2.07;;
71610;SDS011;59459;51.172;6.682;2023-11-19T05:47:01;10.20;;;1.88;;
71610;SDS011;59459;51.172;6.682;2023-11-19T05:49:27;10.83;;;3.10;;
71610;SDS011;59459;51.172;6.682;2023-11-19T05:51:52;13.50;;;1.70;;
71610;SDS011;59459;51.172;6.682;2023-11-19T05:54:20;11.13;;;1.98;;
71610;SDS011;59459;51.172;6.682;2023-11-19T05:56:49;9.73;;;2.00;;
71610;SDS011;59459;51.172;6.682;2023-11-19T05:59:14;15.15;;;2.03;;
71610;SDS011;59459;51.172;6.682;2023-11-19T06:01:42;13.27;;;1.90;;
71610;SDS011;59459;51.172;6.682;2023-11-19T06:04:08;9.40;;;1.80;;
71610;SDS011;59459;51.172;6.682;2023-11-19T06:06:33;13.33;;;1.93;;
71610;SDS011;59459;51.172;6.682;2023-11-19T06:08:59;12.95;;;1.70;;
71610;SDS011;59459;51.172;6.682;2023-11-19T06:11:24;11.57;;;1.77;;
71610;SDS011;59459;51.172;6.682;2023-11-19T06:13:51;13.40;;;2.28;;
71610;SDS011;59459;51.172;6.682;2023-11-19T06:16:17;14.20;;;1.83;;
71610;SDS011;59459;51.172;6.682;2023-11-19T06:18:42;9.67;;;2.10;;
71610;SDS011;59459;51.172;6.682;2023-11-19T06:21:08;13.75;;;2.30;;
71610;SDS011;59459;51.172;6.682;2023-11-19T06:23:34;15.43;;;2.00;;
71610;SDS011;59459;51.172;6.682;2023-11-19T06:25:59;11.30;;;2.10;;
71610;SDS011;59459;51.172;6.682;2023-11-19T06:28:24;12.23;;;1.60;;
71610;SDS011;59459;51.172;6.682;2023-11-19T06:30:50;12.70;;;1.93;;
71610;SDS011;59459;51.172;6.682;2023-11-19T06:33:15;16.77;;;2.13;;
71610;SDS011;59459;51.172;6.682;2023-11-19T06:35:40;12.02;;;1.92;;
71610;SDS011;59459;51.172;6.682;2023-11-19T06:38:06;16.03;;;1.50;;
71610;SDS011;59459;51.172;6.682;2023-11-19T06:40:31;12.27;;;1.50;;
71610;SDS011;59459;51.172;6.682;2023-11-19T06:42:56;12.23;;;2.17;;
71610;SDS011;59459;51.172;6.682;2023-11-19T06:45:22;16.17;;;3.03;;
71610;SDS011;59459;51.172;6.682;2023-11-19T06:47:47;11.43;;;1.60;;
71610;SDS011;59459;51.172;6.682;2023-11-19T06:50:12;9.03;;;2.53;;
71610;SDS011;59459;51.172;6.682;2023-11-19T06:52:37;10.10;;;2.17;;
71610;SDS011;59459;51.172;6.682;2023-11-19T06:55:03;14.60;;;2.60;;
71610;SDS011;59459;51.172;6.682;2023-11-19T06:57:28;10.25;;;1.60;;
71610;SDS011;59459;51.172;6.682;2023-11-19T06:59:54;13.23;;;2.40;;
71610;SDS011;59459;51.172;6.682;2023-11-19T07:02:19;14.67;;;1.93;;
71610;SDS011;59459;51.172;6.682;2023-11-19T07:04:45;13.47;;;1.53;;
71610;SDS011;59459;51.172;6.682;2023-11-19T07:07:10;10.07;;;1.37;;
71610;SDS011;59459;51.172;6.682;2023-11-19T07:09:35;16.67;;;2.17;;
71610;SDS011;59459;51.172;6.682;2023-11-19T07:12:00;20.70;;;2.33;;
71610;SDS011;59459;51.172;6.682;2023-11-19T07:14:26;19.23;;;2.20;;
71610;SDS011;59459;51.172;6.682;2023-11-19T07:16:52;10.65;;;1.85;;
71610;SDS011;59459;51.172;6.682;2023-11-19T07:19:18;11.27;;;1.60;;
71610;SDS011;59459;51.172;6.682;2023-11-19T07:21:44;14.13;;;1.92;;
71610;SDS011;59459;51.172;6.682;2023-11-19T07:24:09;15.87;;;2.30;;
71610;SDS011;59459;51.172;6.682;2023-11-19T07:26:34;17.33;;;2.03;;
71610;SDS011;59459;51.172;6.682;2023-11-19T07:29:00;15.73;;;1.80;;
71610;SDS011;59459;51.172;6.682;2023-11-19T07:31:26;14.60;;;1.85;;
71610;SDS011;59459;51.172;6.682;2023-11-19T07:33:52;14.73;;;2.00;;
71610;SDS011;59459;51.172;6.682;2023-11-19T07:36:18;21.83;;;2.53;;
71610;SDS011;59459;51.172;6.682;2023-11-19T07:38:45;10.47;;;2.07;;
71610;SDS011;59459;51.172;6.682;2023-11-19T07:41:10;13.88;;;2.05;;
71610;SDS011;59459;51.172;6.682;2023-11-19T07:43:38;15.85;;;2.13;;
71610;SDS011;59459;51.172;6.682;2023-11-19T07:46:03;15.73;;;1.98;;
71610;SDS011;59459;51.172;6.682;2023-11-19T07:48:29;10.07;;;1.63;;
71610;SDS011;59459;51.172;6.682;2023-11-19T07:50:54;18.73;;;1.90;;
71610;SDS011;59459;51.172;6.682;2023-11-19T07:53:20;13.43;;;2.17;;
71610;SDS011;59459;51.172;6.682;2023-11-19T07:55:45;11.60;;;1.83;;
71610;SDS011;59459;51.172;6.682;2023-11-19T07:58:12;14.93;;;1.90;;
71610;SDS011;59459;51.172;6.682;2023-11-19T08:00:38;16.77;;;2.75;;
71610;SDS011;59459;51.172;6.682;2023-11-19T08:03:03;8.30;;;1.80;;
71610;SDS011;59459;51.172;6.682;2023-11-19T08:05:29;15.95;;;2.13;;
71610;SDS011;59459;51.172;6.682;2023-11-19T08:07:54;13.43;;;2.27;;
71610;SDS011;59459;51.172;6.682;2023-11-19T08:10:19;15.73;;;2.07;;
71610;SDS011;59459;51.172;6.682;2023-11-19T08:12:45;10.97;;;2.30;;
71610;SDS011;59459;51.172;6.682;2023-11-19T08:15:10;13.23;;;3.00;;
71610;SDS011;59459;51.172;6.682;2023-11-19T08:17:35;13.90;;;2.03;;
71610;SDS011;59459;51.172;6.682;2023-11-19T08:20:01;11.57;;;1.57;;
71610;SDS011;59459;51.172;6.682;2023-11-19T08:22:26;11.93;;;1.80;;
71610;SDS011;59459;51.172;6.682;2023-11-19T08:24:51;9.83;;;2.03;;
71610;SDS011;59459;51.172;6.682;2023-11-19T08:27:16;12.30;;;2.23;;
71610;SDS011;59459;51.172;6.682;2023-11-19T08:29:41;9.70;;;1.97;;
71610;SDS011;59459;51.172;6.682;2023-11-19T08:32:07;13.27;;;2.10;;
71610;SDS011;59459;51.172;6.682;2023-11-19T08:34:32;12.90;;;1.90;;
71610;SDS011;59459;51.172;6.682;2023-11-19T08:36:57;16.60;;;2.33;;
71610;SDS011;59459;51.172;6.682;2023-11-19T08:39:22;16.63;;;2.60;;
71610;SDS011;59459;51.172;6.682;2023-11-19T08:41:48;12.57;;;2.43;;
71610;SDS011;59459;51.172;6.682;2023-11-19T08:44:13;14.93;;;2.13;;
71610;SDS011;59459;51.172;6.682;2023-11-19T08:46:38;12.03;;;1.60;;
71610;SDS011;59459;51.172;6.682;2023-11-19T08:49:04;14.38;;;2.40;;
71610;SDS011;59459;51.172;6.682;2023-11-19T08:51:30;16.43;;;2.27;;
71610;SDS011;59459;51.172;6.682;2023-11-19T08:53:55;9.90;;;1.93;;
71610;SDS011;59459;51.172;6.682;2023-11-19T08:56:20;9.57;;;2.20;;
71610;SDS011;59459;51.172;6.682;2023-11-19T08:58:46;11.13;;;1.63;;
71610;SDS011;59459;51.172;6.682;2023-11-19T09:01:11;13.67;;;1.70;;
71610;SDS011;59459;51.172;6.682;2023-11-19T09:03:36;19.20;;;3.10;;
71610;SDS011;59459;51.172;6.682;2023-11-19T09:06:02;10.43;;;2.00;;
71610;SDS011;59459;51.172;6.682;2023-11-19T09:08:27;18.25;;;2.10;;
71610;SDS011;59459;51.172;6.682;2023-11-19T09:10:52;19.27;;;2.10;;
71610;SDS011;59459;51.172;6.682;2023-11-19T09:13:17;16.23;;;1.90;;
71610;SDS011;59459;51.172;6.682;2023-11-19T09:15:43;13.80;;;2.70;;
71610;SDS011;59459;51.172;6.682;2023-11-19T09:18:08;13.70;;;2.30;;
71610;SDS011;59459;51.172;6.682;2023-11-19T09:20:36;13.30;;;2.30;;
71610;SDS011;59459;51.172;6.682;2023-11-19T09:23:03;14.10;;;2.13;;
71610;SDS011;59459;51.172;6.682;2023-11-19T09:25:28;12.80;;;2.53;;
71610;SDS011;59459;51.172;6.682;2023-11-19T09:27:53;16.37;;;2.10;;
71610;SDS011;59459;51.172;6.682;2023-11-19T09:30:19;16.77;;;2.40;;
71610;SDS011;59459;51.172;6.682;2023-11-19T09:32:44;13.67;;;2.10;;
71610;SDS011;59459;51.172;6.682;2023-11-19T09:35:09;14.47;;;2.37;;
71610;SDS011;59459;51.172;6.682;2023-11-19T09:37:38;12.52;;;2.00;;
71610;SDS011;59459;51.172;6.682;2023-11-19T09:40:04;17.07;;;2.60;;
71610;SDS011;59459;51.172;6.682;2023-11-19T09:42:29;15.70;;;1.60;;
71610;SDS011;59459;51.172;6.682;2023-11-19T09:44:57;12.83;;;2.13;;
71610;SDS011;59459;51.172;6.682;2023-11-19T09:47:22;16.98;;;1.77;;
71610;SDS011;59459;51.172;6.682;2023-11-19T09:49:48;14.93;;;2.20;;
71610;SDS011;59459;51.172;6.682;2023-11-19T09:52:14;11.43;;;1.98;;
71610;SDS011;59459;51.172;6.682;2023-11-19T09:54:39;20.77;;;2.27;;
71610;SDS011;59459;51.172;6.682;2023-11-19T09:57:04;13.80;;;1.90;;
71610;SDS011;59459;51.172;6.682;2023-11-19T09:59:32;8.25;;;2.13;;
71610;SDS011;59459;51.172;6.682;2023-11-19T10:01:58;16.10;;;2.37;;
71610;SDS011;59459;51.172;6.682;2023-11-19T10:04:23;13.88;;;2.15;;
71610;SDS011;59459;51.172;6.682;2023-11-19T10:06:50;12.68;;;1.92;;
71610;SDS011;59459;51.172;6.682;2023-11-19T10:09:16;10.10;;;1.73;;
71610;SDS011;59459;51.172;6.682;2023-11-19T10:11:42;13.70;;;1.87;;
71610;SDS011;59459;51.172;6.682;2023-11-19T10:14:07;10.43;;;1.93;;
71610;SDS011;59459;51.172;6.682;2023-11-19T10:16:34;16.53;;;2.37;;
71610;SDS011;59459;51.172;6.682;2023-11-19T10:18:59;11.43;;;2.15;;
71610;SDS011;59459;51.172;6.682;2023-11-19T10:21:24;15.13;;;1.93;;
71610;SDS011;59459;51.172;6.682;2023-11-19T10:23:53;17.77;;;2.87;;
71610;SDS011;59459;51.172;6.682;2023-11-19T10:26:21;14.05;;;2.33;;
71610;SDS011;59459;51.172;6.682;2023-11-19T10:28:47;8.17;;;1.67;;
71610;SDS011;59459;51.172;6.682;2023-11-19T10:31:13;12.37;;;3.13;;
71610;SDS011;59459;51.172;6.682;2023-11-19T10:33:38;18.83;;;2.60;;
71610;SDS011;59459;51.172;6.682;2023-11-19T10:36:04;15.13;;;2.20;;
71610;SDS011;59459;51.172;6.682;2023-11-19T10:38:29;10.18;;;1.75;;
71610;SDS011;59459;51.172;6.682;2023-11-19T10:40:55;10.63;;;2.00;;
71610;SDS011;59459;51.172;6.682;2023-11-19T10:43:21;9.77;;;1.50;;
71610;SDS011;59459;51.172;6.682;2023-11-19T10:45:50;16.27;;;3.23;;
71610;SDS011;59459;51.172;6.682;2023-11-19T10:48:15;10.27;;;1.80;;
71610;SDS011;59459;51.172;6.682;2023-11-19T10:50:41;16.63;;;2.60;;
71610;SDS011;59459;51.172;6.682;2023-11-19T10:53:07;14.77;;;2.00;;
71610;SDS011;59459;51.172;6.682;2023-11-19T10:55:33;13.82;;;2.08;;
71610;SDS011;59459;51.172;6.682;2023-11-19T10:58:06;10.10;;;2.00;;
71610;SDS011;59459;51.172;6.682;2023-11-19T11:03:18;15.05;;;2.28;;
71610;SDS011;59459;51.172;6.682;2023-11-19T11:05:47;14.50;;;2.83;;
71610;SDS011;59459;51.172;6.682;2023-11-19T11:08:12;11.15;;;1.83;;
71610;SDS011;59459;51.172;6.682;2023-11-19T11:10:59;10.97;;;1.73;;
71610;SDS011;59459;51.172;6.682;2023-11-19T11:13:25;10.95;;;1.60;;
71610;SDS011;59459;51.172;6.682;2023-11-19T11:15:54;12.35;;;2.08;;
71610;SDS011;59459;51.172;6.682;2023-11-19T11:18:21;8.55;;;1.55;;
71610;SDS011;59459;51.172;6.682;2023-11-19T11:20:47;7.27;;;1.90;;
71610;SDS011;59459;51.172;6.682;2023-11-19T11:28:44;11.50;;;2.17;;
71610;SDS011;59459;51.172;6.682;2023-11-19T11:36:24;12.60;;;2.10;;
71610;SDS011;59459;51.172;6.682;2023-11-19T11:38:50;12.37;;;1.43;;
71610;SDS011;59459;51.172;6.682;2023-11-19T11:41:22;12.47;;;2.47;;
71610;SDS011;59459;51.172;6.682;2023-11-19T11:48:57;10.73;;;1.90;;
71610;SDS011;59459;51.172;6.682;2023-11-19T11:54:07;12.23;;;1.45;;
71610;SDS011;59459;51.172;6.682;2023-11-19T11:56:33;9.73;;;1.80;;
71610;SDS011;59459;51.172;6.682;2023-11-19T11:58:59;9.20;;;1.23;;
71610;SDS011;59459;51.172;6.682;2023-11-19T12:01:25;12.88;;;1.45;;
71610;SDS011;59459;51.172;6.682;2023-11-19T12:03:55;11.68;;;1.70;;
71610;SDS011;59459;51.172;6.682;2023-11-19T12:06:21;4.97;;;1.67;;
71610;SDS011;59459;51.172;6.682;2023-11-19T12:08:46;15.20;;;2.37;;
71610;SDS011;59459;51.172;6.682;2023-11-19T12:11:11;12.30;;;1.90;;
71610;SDS011;59459;51.172;6.682;2023-11-19T12:13:46;11.27;;;1.60;;
71610;SDS011;59459;51.172;6.682;2023-11-19T12:16:13;8.13;;;1.92;;
71610;SDS011;59459;51.172;6.682;2023-11-19T12:18:39;11.00;;;2.40;;
71610;SDS011;59459;51.172;6.682;2023-11-19T12:21:04;9.70;;;1.70;;
71610;SDS011;59459;51.172;6.682;2023-11-19T12:23:30;12.93;;;2.53;;
71610;SDS011;59459;51.172;6.682;2023-11-19T12:25:56;11.80;;;2.17;;
71610;SDS011;59459;51.172;6.682;2023-11-19T12:28:22;9.73;;;1.90;;
71610;SDS011;59459;51.172;6.682;2023-11-19T12:30:49;10.38;;;2.20;;
71610;SDS011;59459;51.172;6.682;2023-11-19T12:33:14;14.17;;;2.23;;
71610;SDS011;59459;51.172;6.682;2023-11-19T12:35:41;8.75;;;1.67;;
71610;SDS011;59459;51.172;6.682;2023-11-19T12:38:07;10.25;;;1.77;;
71610;SDS011;59459;51.172;6.682;2023-11-19T12:40:33;18.93;;;2.63;;
71610;SDS011;59459;51.172;6.682;2023-11-19T12:42:58;15.33;;;2.10;;
71610;SDS011;59459;51.172;6.682;2023-11-19T12:45:25;9.02;;;1.50;;
71610;SDS011;59459;51.172;6.682;2023-11-19T12:48:05;9.25;;;1.50;;
71610;SDS011;59459;51.172;6.682;2023-11-19T12:50:49;13.48;;;2.50;;
71610;SDS011;59459;51.172;6.682;2023-11-19T12:53:15;11.07;;;2.53;;
71610;SDS011;59459;51.172;6.682;2023-11-19T12:55:40;6.73;;;1.20;;
71610;SDS011;59459;51.172;6.682;2023-11-19T12:58:05;19.23;;;2.67;;
71610;SDS011;59459;51.172;6.682;2023-11-19T13:00:31;11.53;;;1.97;;
71610;SDS011;59459;51.172;6.682;2023-11-19T13:02:56;12.53;;;1.70;;
71610;SDS011;59459;51.172;6.682;2023-11-19T13:07:47;11.13;;;2.17;;
71610;SDS011;59459;51.172;6.682;2023-11-19T13:10:12;11.13;;;1.60;;
71610;SDS011;59459;51.172;6.682;2023-11-19T13:12:38;14.10;;;1.60;;
71610;SDS011;59459;51.172;6.682;2023-11-19T13:15:03;10.20;;;1.70;;
71610;SDS011;59459;51.172;6.682;2023-11-19T13:17:29;9.80;;;1.63;;
71610;SDS011;59459;51.172;6.682;2023-11-19T13:19:54;9.77;;;1.97;;
71610;SDS011;59459;51.172;6.682;2023-11-19T13:22:21;14.13;;;2.70;;
71610;SDS011;59459;51.172;6.682;2023-11-19T13:24:46;9.77;;;1.77;;
71610;SDS011;59459;51.172;6.682;2023-11-19T13:27:12;17.10;;;2.97;;
71610;SDS011;59459;51.172;6.682;2023-11-19T13:29:38;9.50;;;2.53;;
71610;SDS011;59459;51.172;6.682;2023-11-19T13:32:03;16.97;;;2.53;;
71610;SDS011;59459;51.172;6.682;2023-11-19T13:34:29;12.77;;;2.92;;
71610;SDS011;59459;51.172;6.682;2023-11-19T13:36:54;11.73;;;2.40;;
71610;SDS011;59459;51.172;6.682;2023-11-19T13:39:19;8.50;;;2.20;;
71610;SDS011;59459;51.172;6.682;2023-11-19T13:41:48;11.65;;;2.33;;
71610;SDS011;59459;51.172;6.682;2023-11-19T13:44:13;13.10;;;2.17;;
71610;SDS011;59459;51.172;6.682;2023-11-19T13:46:38;10.47;;;2.40;;
71610;SDS011;59459;51.172;6.682;2023-11-19T13:49:04;14.15;;;2.55;;
71610;SDS011;59459;51.172;6.682;2023-11-19T13:51:29;8.30;;;2.40;;
71610;SDS011;59459;51.172;6.682;2023-11-19T13:53:54;12.63;;;2.43;;
71610;SDS011;59459;51.172;6.682;2023-11-19T13:56:20;11.60;;;2.00;;
71610;SDS011;59459;51.172;6.682;2023-11-19T13:58:45;9.27;;;1.90;;
71610;SDS011;59459;51.172;6.682;2023-11-19T14:01:10;8.50;;;1.40;;
71610;SDS011;59459;51.172;6.682;2023-11-19T14:03:37;9.88;;;2.70;;
71610;SDS011;59459;51.172;6.682;2023-11-19T14:06:03;13.60;;;2.10;;
71610;SDS011;59459;51.172;6.682;2023-11-19T14:08:28;12.27;;;1.87;;
71610;SDS011;59459;51.172;6.682;2023-11-19T14:10:53;10.27;;;2.10;;
71610;SDS011;59459;51.172;6.682;2023-11-19T14:13:21;9.90;;;2.17;;
71610;SDS011;59459;51.172;6.682;2023-11-19T14:15:46;16.67;;;1.90;;
71610;SDS011;59459;51.172;6.682;2023-11-19T14:18:11;18.57;;;2.37;;
71610;SDS011;59459;51.172;6.682;2023-11-19T14:20:36;11.97;;;1.83;;
71610;SDS011;59459;51.172;6.682;2023-11-19T14:23:03;14.50;;;2.13;;
71610;SDS011;59459;51.172;6.682;2023-11-19T14:25:28;18.07;;;2.77;;
71610;SDS011;59459;51.172;6.682;2023-11-19T14:27:54;12.50;;;2.10;;
71610;SDS011;59459;51.172;6.682;2023-11-19T14:30:19;10.43;;;1.97;;
71610;SDS011;59459;51.172;6.682;2023-11-19T14:32:44;16.07;;;2.10;;
71610;SDS011;59459;51.172;6.682;2023-11-19T14:35:11;13.68;;;2.28;;
71610;SDS011;59459;51.172;6.682;2023-11-19T14:37:36;13.27;;;2.23;;
71610;SDS011;59459;51.172;6.682;2023-11-19T14:40:01;12.50;;;2.47;;
71610;SDS011;59459;51.172;6.682;2023-11-19T14:42:29;11.38;;;2.35;;
71610;SDS011;59459;51.172;6.682;2023-11-19T14:44:55;12.83;;;2.17;;
71610;SDS011;59459;51.172;6.682;2023-11-19T14:47:23;11.43;;;2.13;;
71610;SDS011;59459;51.172;6.682;2023-11-19T14:49:48;8.10;;;2.50;;
71610;SDS011;59459;51.172;6.682;2023-11-19T14:52:14;10.37;;;1.47;;
71610;SDS011;59459;51.172;6.682;2023-11-19T14:54:39;11.57;;;1.80;;
71610;SDS011;59459;51.172;6.682;2023-11-19T14:57:05;11.07;;;2.07;;